sensor_id;sensor_type;location;lat;lon;timestamp;temperature;humidity
20481;DHT22;10399;50.754;3.366;2023-05-24T00:00:59;12.70;99.90
20481;DHT22;10399;50.754;3.366;2023-05-24T00:03:30;12.70;99.90
20481;DHT22;10399;50.754;3.366;2023-05-24T00:06:01;12.70;99.90
20481;DHT22;10399;50.754;3.366;2023-05-24T00:08:28;12.70;99.90
20481;DHT22;10399;50.754;3.366;2023-05-24T00:10:55;12.50;99.90
20481;DHT22;10399;50.754;3.366;2023-05-24T00:13:22;12.50;99.90
20481;DHT22;10399;50.754;3.366;2023-05-24T00:15:49;12.40;99.90
20481;DHT22;10399;50.754;3.366;2023-05-24T00:18:17;12.40;99.90
20481;DHT22;10399;50.754;3.366;2023-05-24T00:20:44;12.50;99.90
20481;DHT22;10399;50.754;3.366;2023-05-24T00:23:12;12.40;99.90
20481;DHT22;10399;50.754;3.366;2023-05-24T00:25:39;12.40;99.90
20481;DHT22;10399;50.754;3.366;2023-05-24T00:28:06;12.30;99.90
20481;DHT22;10399;50.754;3.366;2023-05-24T00:30:33;12.30;99.90
20481;DHT22;10399;50.754;3.366;2023-05-24T00:33:00;12.40;99.90
20481;DHT22;10399;50.754;3.366;2023-05-24T00:35:27;12.30;99.90
20481;DHT22;10399;50.754;3.366;2023-05-24T00:37:55;12.30;99.90
20481;DHT22;10399;50.754;3.366;2023-05-24T00:40:22;12.20;99.90
20481;DHT22;10399;50.754;3.366;2023-05-24T00:42:49;12.20;99.90
20481;DHT22;10399;50.754;3.366;2023-05-24T00:45:16;12.30;99.90
20481;DHT22;10399;50.754;3.366;2023-05-24T00:47:44;12.30;99.90
20481;DHT22;10399;50.754;3.366;2023-05-24T00:50:12;12.20;99.90
20481;DHT22;10399;50.754;3.366;2023-05-24T00:52:41;12.20;99.90
20481;DHT22;10399;50.754;3.366;2023-05-24T00:55:09;12.20;99.90
20481;DHT22;10399;50.754;3.366;2023-05-24T00:57:36;12.00;99.90
20481;DHT22;10399;50.754;3.366;2023-05-24T01:00:05;12.00;99.90
20481;DHT22;10399;50.754;3.366;2023-05-24T01:02:33;11.80;99.90
20481;DHT22;10399;50.754;3.366;2023-05-24T01:05:01;11.90;99.90
20481;DHT22;10399;50.754;3.366;2023-05-24T01:10:13;11.80;99.90
20481;DHT22;10399;50.754;3.366;2023-05-24T01:18:08;11.70;99.90
20481;DHT22;10399;50.754;3.366;2023-05-24T01:20:38;11.70;99.90
20481;DHT22;10399;50.754;3.366;2023-05-24T01:28:44;11.80;99.90
20481;DHT22;10399;50.754;3.366;2023-05-24T01:31:14;11.80;99.90
20481;DHT22;10399;50.754;3.366;2023-05-24T01:33:42;11.70;99.90
20481;DHT22;10399;50.754;3.366;2023-05-24T01:36:09;11.70;99.90
20481;DHT22;10399;50.754;3.366;2023-05-24T01:38:38;11.60;99.90
20481;DHT22;10399;50.754;3.366;2023-05-24T01:41:22;11.70;99.90
20481;DHT22;10399;50.754;3.366;2023-05-24T01:44:00;11.70;99.90
20481;DHT22;10399;50.754;3.366;2023-05-24T01:46:37;11.50;99.90
20481;DHT22;10399;50.754;3.366;2023-05-24T01:49:21;11.60;99.90
20481;DHT22;10399;50.754;3.366;2023-05-24T01:52:02;11.60;99.90
20481;DHT22;10399;50.754;3.366;2023-05-24T01:54:33;11.60;99.90
20481;DHT22;10399;50.754;3.366;2023-05-24T01:57:06;11.50;99.90
20481;DHT22;10399;50.754;3.366;2023-05-24T01:59:35;11.50;99.90
20481;DHT22;10399;50.754;3.366;2023-05-24T02:02:04;11.40;99.90
20481;DHT22;10399;50.754;3.366;2023-05-24T02:04:31;11.50;99.90
20481;DHT22;10399;50.754;3.366;2023-05-24T02:06:58;11.50;99.90
20481;DHT22;10399;50.754;3.366;2023-05-24T02:09:25;11.30;99.90
20481;DHT22;10399;50.754;3.366;2023-05-24T02:11:52;11.40;99.90
20481;DHT22;10399;50.754;3.366;2023-05-24T02:14:19;11.30;99.90
20481;DHT22;10399;50.754;3.366;2023-05-24T02:16:47;11.20;99.90
20481;DHT22;10399;50.754;3.366;2023-05-24T02:19:16;11.30;99.90
20481;DHT22;10399;50.754;3.366;2023-05-24T02:21:43;11.30;99.90
20481;DHT22;10399;50.754;3.366;2023-05-24T02:24:10;11.30;99.90
20481;DHT22;10399;50.754;3.366;2023-05-24T02:26:38;11.30;99.90
20481;DHT22;10399;50.754;3.366;2023-05-24T02:29:05;11.30;99.90
20481;DHT22;10399;50.754;3.366;2023-05-24T02:31:32;11.30;99.90
20481;DHT22;10399;50.754;3.366;2023-05-24T02:33:59;11.30;99.90
20481;DHT22;10399;50.754;3.366;2023-05-24T02:36:26;11.30;99.90
20481;DHT22;10399;50.754;3.366;2023-05-24T02:38:53;11.30;99.90
20481;DHT22;10399;50.754;3.366;2023-05-24T02:41:22;11.20;99.90
20481;DHT22;10399;50.754;3.366;2023-05-24T02:43:49;11.30;99.90
20481;DHT22;10399;50.754;3.366;2023-05-24T02:46:16;11.10;99.90
20481;DHT22;10399;50.754;3.366;2023-05-24T02:48:43;11.10;99.90
20481;DHT22;10399;50.754;3.366;2023-05-24T02:51:10;11.20;99.90
20481;DHT22;10399;50.754;3.366;2023-05-24T02:53:37;11.20;99.90
20481;DHT22;10399;50.754;3.366;2023-05-24T02:56:04;11.20;99.90
20481;DHT22;10399;50.754;3.366;2023-05-24T02:58:33;11.20;99.90
20481;DHT22;10399;50.754;3.366;2023-05-24T03:01:00;11.20;99.90
20481;DHT22;10399;50.754;3.366;2023-05-24T03:03:27;11.30;99.90
20481;DHT22;10399;50.754;3.366;2023-05-24T03:05:55;11.30;99.90
20481;DHT22;10399;50.754;3.366;2023-05-24T03:08:23;11.30;99.90
20481;DHT22;10399;50.754;3.366;2023-05-24T03:10:50;11.30;99.90
20481;DHT22;10399;50.754;3.366;2023-05-24T03:13:17;11.50;99.90
20481;DHT22;10399;50.754;3.366;2023-05-24T03:15:44;11.30;99.90
20481;DHT22;10399;50.754;3.366;2023-05-24T03:18:11;11.20;99.90
20481;DHT22;10399;50.754;3.366;2023-05-24T03:20:38;11.20;99.90
20481;DHT22;10399;50.754;3.366;2023-05-24T03:23:05;11.20;99.90
20481;DHT22;10399;50.754;3.366;2023-05-24T03:25:32;11.20;99.90
20481;DHT22;10399;50.754;3.366;2023-05-24T03:27:59;11.20;99.90
20481;DHT22;10399;50.754;3.366;2023-05-24T03:30:28;11.30;99.90
20481;DHT22;10399;50.754;3.366;2023-05-24T03:32:55;11.10;99.90
20481;DHT22;10399;50.754;3.366;2023-05-24T03:35:22;11.00;99.90
20481;DHT22;10399;50.754;3.366;2023-05-24T03:37:49;10.90;99.90
20481;DHT22;10399;50.754;3.366;2023-05-24T03:40:16;11.00;99.90
20481;DHT22;10399;50.754;3.366;2023-05-24T03:42:44;11.10;99.90
20481;DHT22;10399;50.754;3.366;2023-05-24T03:45:11;11.10;99.90
20481;DHT22;10399;50.754;3.366;2023-05-24T03:47:38;11.20;99.90
20481;DHT22;10399;50.754;3.366;2023-05-24T03:50:05;11.10;99.90
20481;DHT22;10399;50.754;3.366;2023-05-24T03:52:32;11.10;99.90
20481;DHT22;10399;50.754;3.366;2023-05-24T03:54:59;11.20;99.90
20481;DHT22;10399;50.754;3.366;2023-05-24T03:57:27;11.00;99.90
20481;DHT22;10399;50.754;3.366;2023-05-24T03:59:54;11.00;99.90
20481;DHT22;10399;50.754;3.366;2023-05-24T04:02:21;11.00;99.90
20481;DHT22;10399;50.754;3.366;2023-05-24T04:04:48;10.90;99.90
20481;DHT22;10399;50.754;3.366;2023-05-24T04:07:15;10.90;99.90
20481;DHT22;10399;50.754;3.366;2023-05-24T04:09:42;10.90;99.90
20481;DHT22;10399;50.754;3.366;2023-05-24T04:12:09;10.80;99.90
20481;DHT22;10399;50.754;3.366;2023-05-24T04:14:37;10.90;99.90
20481;DHT22;10399;50.754;3.366;2023-05-24T04:17:04;11.00;99.90
20481;DHT22;10399;50.754;3.366;2023-05-24T04:19:33;11.10;99.90
20481;DHT22;10399;50.754;3.366;2023-05-24T04:22:00;11.10;99.90
20481;DHT22;10399;50.754;3.366;2023-05-24T04:24:27;11.10;99.90
20481;DHT22;10399;50.754;3.366;2023-05-24T04:26:54;11.10;99.90
20481;DHT22;10399;50.754;3.366;2023-05-24T04:29:24;11.10;99.90
20481;DHT22;10399;50.754;3.366;2023-05-24T04:31:52;11.10;99.90
20481;DHT22;10399;50.754;3.366;2023-05-24T04:34:19;11.10;99.90
20481;DHT22;10399;50.754;3.366;2023-05-24T04:36:48;11.10;99.90
20481;DHT22;10399;50.754;3.366;2023-05-24T04:39:17;11.20;99.90
20481;DHT22;10399;50.754;3.366;2023-05-24T04:41:45;11.10;99.90
20481;DHT22;10399;50.754;3.366;2023-05-24T04:44:12;11.20;99.90
20481;DHT22;10399;50.754;3.366;2023-05-24T04:46:39;11.20;99.90
20481;DHT22;10399;50.754;3.366;2023-05-24T04:49:06;11.20;99.90
20481;DHT22;10399;50.754;3.366;2023-05-24T04:51:34;11.30;99.90
20481;DHT22;10399;50.754;3.366;2023-05-24T04:54:04;11.40;99.90
20481;DHT22;10399;50.754;3.366;2023-05-24T04:56:35;11.40;99.90
20481;DHT22;10399;50.754;3.366;2023-05-24T04:59:05;11.50;99.90
20481;DHT22;10399;50.754;3.366;2023-05-24T05:01:33;11.60;99.90
20481;DHT22;10399;50.754;3.366;2023-05-24T05:04:02;11.60;99.90
20481;DHT22;10399;50.754;3.366;2023-05-24T05:06:33;11.60;99.90
20481;DHT22;10399;50.754;3.366;2023-05-24T05:09:05;11.70;99.90
20481;DHT22;10399;50.754;3.366;2023-05-24T05:11:38;11.70;99.90
20481;DHT22;10399;50.754;3.366;2023-05-24T05:14:06;11.80;99.90
20481;DHT22;10399;50.754;3.366;2023-05-24T05:16:37;11.80;99.90
20481;DHT22;10399;50.754;3.366;2023-05-24T05:19:04;12.00;99.90
20481;DHT22;10399;50.754;3.366;2023-05-24T05:21:32;12.20;99.90
20481;DHT22;10399;50.754;3.366;2023-05-24T05:24:02;12.40;99.90
20481;DHT22;10399;50.754;3.366;2023-05-24T05:26:29;12.60;99.90
20481;DHT22;10399;50.754;3.366;2023-05-24T05:28:57;12.60;99.90
20481;DHT22;10399;50.754;3.366;2023-05-24T05:31:24;12.60;99.90
20481;DHT22;10399;50.754;3.366;2023-05-24T05:33:51;12.80;99.90
20481;DHT22;10399;50.754;3.366;2023-05-24T05:36:19;13.00;99.90
20481;DHT22;10399;50.754;3.366;2023-05-24T05:38:46;12.90;99.90
20481;DHT22;10399;50.754;3.366;2023-05-24T05:41:13;13.00;99.90
20481;DHT22;10399;50.754;3.366;2023-05-24T05:43:40;13.10;99.90
20481;DHT22;10399;50.754;3.366;2023-05-24T05:46:07;13.20;99.90
20481;DHT22;10399;50.754;3.366;2023-05-24T05:48:36;13.20;99.90
20481;DHT22;10399;50.754;3.366;2023-05-24T05:51:03;13.10;99.90
20481;DHT22;10399;50.754;3.366;2023-05-24T05:53:33;13.00;99.90
20481;DHT22;10399;50.754;3.366;2023-05-24T05:56:00;13.10;99.90
20481;DHT22;10399;50.754;3.366;2023-05-24T05:58:27;13.10;99.90
20481;DHT22;10399;50.754;3.366;2023-05-24T06:00:54;13.00;99.90
20481;DHT22;10399;50.754;3.366;2023-05-24T06:03:21;12.80;99.90
20481;DHT22;10399;50.754;3.366;2023-05-24T06:05:48;12.90;99.90
20481;DHT22;10399;50.754;3.366;2023-05-24T06:08:19;13.00;99.90
20481;DHT22;10399;50.754;3.366;2023-05-24T06:10:46;13.20;99.90
20481;DHT22;10399;50.754;3.366;2023-05-24T06:13:15;13.30;99.90
20481;DHT22;10399;50.754;3.366;2023-05-24T06:15:42;13.10;99.90
20481;DHT22;10399;50.754;3.366;2023-05-24T06:18:09;13.30;99.90
20481;DHT22;10399;50.754;3.366;2023-05-24T06:20:36;13.50;99.90
20481;DHT22;10399;50.754;3.366;2023-05-24T06:23:04;13.50;99.90
20481;DHT22;10399;50.754;3.366;2023-05-24T06:25:31;13.40;99.90
20481;DHT22;10399;50.754;3.366;2023-05-24T06:27:59;13.20;99.90
20481;DHT22;10399;50.754;3.366;2023-05-24T06:30:26;13.00;99.90
20481;DHT22;10399;50.754;3.366;2023-05-24T06:32:54;13.30;99.90
20481;DHT22;10399;50.754;3.366;2023-05-24T06:35:22;13.60;99.90
20481;DHT22;10399;50.754;3.366;2023-05-24T06:37:49;13.80;99.90
20481;DHT22;10399;50.754;3.366;2023-05-24T06:40:16;14.00;99.90
20481;DHT22;10399;50.754;3.366;2023-05-24T06:42:43;14.20;99.90
20481;DHT22;10399;50.754;3.366;2023-05-24T06:45:10;14.40;99.90
20481;DHT22;10399;50.754;3.366;2023-05-24T06:47:37;14.50;99.90
20481;DHT22;10399;50.754;3.366;2023-05-24T06:50:05;14.50;99.90
20481;DHT22;10399;50.754;3.366;2023-05-24T06:52:32;14.60;99.90
20481;DHT22;10399;50.754;3.366;2023-05-24T06:54:59;14.80;99.90
20481;DHT22;10399;50.754;3.366;2023-05-24T06:57:28;15.00;99.90
20481;DHT22;10399;50.754;3.366;2023-05-24T06:59:55;15.00;99.90
20481;DHT22;10399;50.754;3.366;2023-05-24T07:02:22;15.10;99.90
20481;DHT22;10399;50.754;3.366;2023-05-24T07:04:53;15.20;99.90
20481;DHT22;10399;50.754;3.366;2023-05-24T07:07:20;15.50;99.90
20481;DHT22;10399;50.754;3.366;2023-05-24T07:09:47;15.70;99.90
20481;DHT22;10399;50.754;3.366;2023-05-24T07:12:14;15.90;99.90
20481;DHT22;10399;50.754;3.366;2023-05-24T07:14:42;16.00;99.90
20481;DHT22;10399;50.754;3.366;2023-05-24T07:17:09;15.90;99.90
20481;DHT22;10399;50.754;3.366;2023-05-24T07:19:36;16.00;99.90
20481;DHT22;10399;50.754;3.366;2023-05-24T07:22:03;16.10;99.90
20481;DHT22;10399;50.754;3.366;2023-05-24T07:24:30;16.00;99.90
20481;DHT22;10399;50.754;3.366;2023-05-24T07:26:57;16.10;99.90
20481;DHT22;10399;50.754;3.366;2023-05-24T07:29:24;16.10;99.90
20481;DHT22;10399;50.754;3.366;2023-05-24T07:31:54;16.40;99.90
20481;DHT22;10399;50.754;3.366;2023-05-24T07:34:23;16.40;99.90
20481;DHT22;10399;50.754;3.366;2023-05-24T07:36:53;16.50;99.90
20481;DHT22;10399;50.754;3.366;2023-05-24T07:39:20;16.70;99.90
20481;DHT22;10399;50.754;3.366;2023-05-24T07:41:47;16.60;99.90
20481;DHT22;10399;50.754;3.366;2023-05-24T07:44:14;16.50;99.90
20481;DHT22;10399;50.754;3.366;2023-05-24T07:46:41;16.50;99.90
20481;DHT22;10399;50.754;3.366;2023-05-24T07:49:09;16.70;99.90
20481;DHT22;10399;50.754;3.366;2023-05-24T07:51:37;16.60;99.90
20481;DHT22;10399;50.754;3.366;2023-05-24T07:54:05;16.70;99.90
20481;DHT22;10399;50.754;3.366;2023-05-24T07:56:32;16.90;99.90
20481;DHT22;10399;50.754;3.366;2023-05-24T07:58:59;16.90;99.90
20481;DHT22;10399;50.754;3.366;2023-05-24T08:01:31;16.90;99.90
20481;DHT22;10399;50.754;3.366;2023-05-24T08:04:02;17.10;99.90
20481;DHT22;10399;50.754;3.366;2023-05-24T08:06:30;17.10;99.90
20481;DHT22;10399;50.754;3.366;2023-05-24T08:08:58;17.30;99.90
20481;DHT22;10399;50.754;3.366;2023-05-24T08:11:25;17.50;99.90
20481;DHT22;10399;50.754;3.366;2023-05-24T08:13:53;17.60;99.90
20481;DHT22;10399;50.754;3.366;2023-05-24T08:16:20;17.70;99.90
20481;DHT22;10399;50.754;3.366;2023-05-24T08:18:47;17.50;99.90
20481;DHT22;10399;50.754;3.366;2023-05-24T08:21:14;17.50;99.90
20481;DHT22;10399;50.754;3.366;2023-05-24T08:23:42;17.60;99.90
20481;DHT22;10399;50.754;3.366;2023-05-24T08:26:09;17.90;99.90
20481;DHT22;10399;50.754;3.366;2023-05-24T08:28:36;18.00;99.90
20481;DHT22;10399;50.754;3.366;2023-05-24T08:31:04;18.20;99.90
20481;DHT22;10399;50.754;3.366;2023-05-24T08:33:32;18.30;99.90
20481;DHT22;10399;50.754;3.366;2023-05-24T08:35:59;18.40;99.90
20481;DHT22;10399;50.754;3.366;2023-05-24T08:38:26;18.30;99.90
20481;DHT22;10399;50.754;3.366;2023-05-24T08:40:54;18.20;99.90
20481;DHT22;10399;50.754;3.366;2023-05-24T08:43:22;18.50;99.90
20481;DHT22;10399;50.754;3.366;2023-05-24T08:45:51;18.50;99.90
20481;DHT22;10399;50.754;3.366;2023-05-24T08:48:19;18.60;99.90
20481;DHT22;10399;50.754;3.366;2023-05-24T08:50:47;18.60;99.90
20481;DHT22;10399;50.754;3.366;2023-05-24T08:53:14;18.40;99.90
20481;DHT22;10399;50.754;3.366;2023-05-24T08:55:43;18.40;99.90
20481;DHT22;10399;50.754;3.366;2023-05-24T08:58:12;18.60;99.90
20481;DHT22;10399;50.754;3.366;2023-05-24T09:00:39;18.70;99.90
20481;DHT22;10399;50.754;3.366;2023-05-24T09:03:07;18.60;99.90
20481;DHT22;10399;50.754;3.366;2023-05-24T09:05:36;18.70;99.90
20481;DHT22;10399;50.754;3.366;2023-05-24T09:08:04;18.70;99.90
20481;DHT22;10399;50.754;3.366;2023-05-24T09:10:32;18.90;99.90
20481;DHT22;10399;50.754;3.366;2023-05-24T09:13:19;19.10;99.90
20481;DHT22;10399;50.754;3.366;2023-05-24T09:15:48;19.30;99.90
20481;DHT22;10399;50.754;3.366;2023-05-24T09:18:15;19.30;99.90
20481;DHT22;10399;50.754;3.366;2023-05-24T09:20:42;19.20;99.90
20481;DHT22;10399;50.754;3.366;2023-05-24T09:23:11;19.30;99.90
20481;DHT22;10399;50.754;3.366;2023-05-24T09:25:46;19.10;99.90
20481;DHT22;10399;50.754;3.366;2023-05-24T09:28:16;19.20;99.90
20481;DHT22;10399;50.754;3.366;2023-05-24T09:30:58;19.10;99.90
20481;DHT22;10399;50.754;3.366;2023-05-24T09:33:32;18.70;99.90
20481;DHT22;10399;50.754;3.366;2023-05-24T09:36:02;18.80;99.90
20481;DHT22;10399;50.754;3.366;2023-05-24T09:38:29;18.90;99.90
20481;DHT22;10399;50.754;3.366;2023-05-24T09:41:00;19.10;99.90
20481;DHT22;10399;50.754;3.366;2023-05-24T09:43:27;19.20;99.90
20481;DHT22;10399;50.754;3.366;2023-05-24T09:45:56;18.80;99.90
20481;DHT22;10399;50.754;3.366;2023-05-24T09:48:24;18.90;99.90
20481;DHT22;10399;50.754;3.366;2023-05-24T09:51:01;18.80;99.90
20481;DHT22;10399;50.754;3.366;2023-05-24T09:53:30;18.80;99.90
20481;DHT22;10399;50.754;3.366;2023-05-24T09:55:59;18.90;99.90
20481;DHT22;10399;50.754;3.366;2023-05-24T09:58:30;19.20;99.90
20481;DHT22;10399;50.754;3.366;2023-05-24T10:01:08;19.30;99.90
20481;DHT22;10399;50.754;3.366;2023-05-24T10:03:53;19.70;99.90
20481;DHT22;10399;50.754;3.366;2023-05-24T10:06:20;19.80;99.90
20481;DHT22;10399;50.754;3.366;2023-05-24T10:08:47;20.10;99.90
20481;DHT22;10399;50.754;3.366;2023-05-24T10:11:16;20.30;99.90
20481;DHT22;10399;50.754;3.366;2023-05-24T10:13:43;20.30;99.90
20481;DHT22;10399;50.754;3.366;2023-05-24T10:16:10;20.40;99.90
20481;DHT22;10399;50.754;3.366;2023-05-24T10:18:37;20.60;99.90
20481;DHT22;10399;50.754;3.366;2023-05-24T10:21:05;20.40;99.90
20481;DHT22;10399;50.754;3.366;2023-05-24T10:23:38;20.90;99.90
20481;DHT22;10399;50.754;3.366;2023-05-24T10:26:09;20.70;99.90
20481;DHT22;10399;50.754;3.366;2023-05-24T10:28:46;21.10;99.90
20481;DHT22;10399;50.754;3.366;2023-05-24T10:31:17;21.10;99.90
20481;DHT22;10399;50.754;3.366;2023-05-24T10:33:46;21.30;99.90
20481;DHT22;10399;50.754;3.366;2023-05-24T10:36:15;21.50;99.90
20481;DHT22;10399;50.754;3.366;2023-05-24T10:38:42;21.70;99.90
20481;DHT22;10399;50.754;3.366;2023-05-24T10:41:10;21.30;99.90
20481;DHT22;10399;50.754;3.366;2023-05-24T10:43:39;21.60;99.90
20481;DHT22;10399;50.754;3.366;2023-05-24T10:46:08;21.60;99.90
20481;DHT22;10399;50.754;3.366;2023-05-24T10:48:38;21.70;99.90
20481;DHT22;10399;50.754;3.366;2023-05-24T10:51:33;21.50;99.90
20481;DHT22;10399;50.754;3.366;2023-05-24T10:54:12;21.70;99.90
20481;DHT22;10399;50.754;3.366;2023-05-24T10:56:41;22.00;99.90
20481;DHT22;10399;50.754;3.366;2023-05-24T10:59:30;22.20;99.90
20481;DHT22;10399;50.754;3.366;2023-05-24T11:02:00;22.40;99.90
20481;DHT22;10399;50.754;3.366;2023-05-24T11:04:32;22.80;99.90
20481;DHT22;10399;50.754;3.366;2023-05-24T11:07:04;22.80;99.90
20481;DHT22;10399;50.754;3.366;2023-05-24T11:09:32;22.40;99.90
20481;DHT22;10399;50.754;3.366;2023-05-24T11:12:06;22.70;99.90
20481;DHT22;10399;50.754;3.366;2023-05-24T11:14:38;23.00;99.90
20481;DHT22;10399;50.754;3.366;2023-05-24T11:17:06;23.10;99.90
20481;DHT22;10399;50.754;3.366;2023-05-24T11:19:36;23.60;99.90
20481;DHT22;10399;50.754;3.366;2023-05-24T11:22:06;24.10;99.90
20481;DHT22;10399;50.754;3.366;2023-05-24T11:24:33;24.50;99.90
20481;DHT22;10399;50.754;3.366;2023-05-24T11:27:01;25.00;99.90
20481;DHT22;10399;50.754;3.366;2023-05-24T11:29:29;25.10;99.90
20481;DHT22;10399;50.754;3.366;2023-05-24T11:31:58;25.00;99.90
20481;DHT22;10399;50.754;3.366;2023-05-24T11:34:32;25.00;99.90
20481;DHT22;10399;50.754;3.366;2023-05-24T11:37:00;25.30;99.90
20481;DHT22;10399;50.754;3.366;2023-05-24T11:39:32;25.30;99.90
20481;DHT22;10399;50.754;3.366;2023-05-24T11:42:00;25.00;99.90
20481;DHT22;10399;50.754;3.366;2023-05-24T11:44:31;25.30;99.90
20481;DHT22;10399;50.754;3.366;2023-05-24T11:47:02;25.20;99.90
20481;DHT22;10399;50.754;3.366;2023-05-24T11:49:30;24.80;99.90
20481;DHT22;10399;50.754;3.366;2023-05-24T11:51:58;24.50;99.90
20481;DHT22;10399;50.754;3.366;2023-05-24T11:54:29;24.40;99.90
20481;DHT22;10399;50.754;3.366;2023-05-24T11:57:00;24.20;99.90
20481;DHT22;10399;50.754;3.366;2023-05-24T11:59:28;24.00;99.90
20481;DHT22;10399;50.754;3.366;2023-05-24T12:01:57;23.60;99.90
20481;DHT22;10399;50.754;3.366;2023-05-24T12:04:33;22.90;99.90
20481;DHT22;10399;50.754;3.366;2023-05-24T12:07:01;22.60;99.90
20481;DHT22;10399;50.754;3.366;2023-05-24T12:09:29;22.70;99.90
20481;DHT22;10399;50.754;3.366;2023-05-24T12:11:56;22.90;99.90
20481;DHT22;10399;50.754;3.366;2023-05-24T12:14:29;22.80;99.90
20481;DHT22;10399;50.754;3.366;2023-05-24T12:16:57;22.70;99.90
20481;DHT22;10399;50.754;3.366;2023-05-24T12:19:28;22.80;99.90
20481;DHT22;10399;50.754;3.366;2023-05-24T12:22:03;22.60;99.90
20481;DHT22;10399;50.754;3.366;2023-05-24T12:24:32;22.70;99.90
20481;DHT22;10399;50.754;3.366;2023-05-24T12:27:01;22.50;99.90
20481;DHT22;10399;50.754;3.366;2023-05-24T12:29:36;22.40;99.90
20481;DHT22;10399;50.754;3.366;2023-05-24T12:32:04;22.70;99.90
20481;DHT22;10399;50.754;3.366;2023-05-24T12:34:32;22.70;99.90
20481;DHT22;10399;50.754;3.366;2023-05-24T12:36:59;23.00;99.90
20481;DHT22;10399;50.754;3.366;2023-05-24T12:39:28;23.30;99.90
20481;DHT22;10399;50.754;3.366;2023-05-24T12:42:02;23.60;99.90
20481;DHT22;10399;50.754;3.366;2023-05-24T12:44:37;23.40;99.90
20481;DHT22;10399;50.754;3.366;2023-05-24T12:47:05;23.10;99.90
20481;DHT22;10399;50.754;3.366;2023-05-24T12:49:34;22.50;99.90
20481;DHT22;10399;50.754;3.366;2023-05-24T12:52:01;23.60;99.90
20481;DHT22;10399;50.754;3.366;2023-05-24T12:54:29;24.10;99.90
20481;DHT22;10399;50.754;3.366;2023-05-24T12:56:56;24.40;99.90
20481;DHT22;10399;50.754;3.366;2023-05-24T12:59:26;24.40;99.90
20481;DHT22;10399;50.754;3.366;2023-05-24T13:01:55;24.10;99.90
20481;DHT22;10399;50.754;3.366;2023-05-24T13:04:23;23.90;99.90
20481;DHT22;10399;50.754;3.366;2023-05-24T13:06:53;24.00;99.90
20481;DHT22;10399;50.754;3.366;2023-05-24T13:09:20;23.80;99.90
20481;DHT22;10399;50.754;3.366;2023-05-24T13:11:48;23.80;99.90
20481;DHT22;10399;50.754;3.366;2023-05-24T13:14:15;24.00;99.90
20481;DHT22;10399;50.754;3.366;2023-05-24T13:16:57;23.80;99.90
20481;DHT22;10399;50.754;3.366;2023-05-24T13:19:24;23.90;99.90
20481;DHT22;10399;50.754;3.366;2023-05-24T13:21:52;23.90;99.90
20481;DHT22;10399;50.754;3.366;2023-05-24T13:24:20;24.60;99.90
20481;DHT22;10399;50.754;3.366;2023-05-24T13:26:48;25.00;99.90
20481;DHT22;10399;50.754;3.366;2023-05-24T13:29:19;25.80;99.90
20481;DHT22;10399;50.754;3.366;2023-05-24T13:32:05;26.50;99.90
20481;DHT22;10399;50.754;3.366;2023-05-24T13:34:32;27.30;99.90
20481;DHT22;10399;50.754;3.366;2023-05-24T13:36:59;28.00;97.80
20481;DHT22;10399;50.754;3.366;2023-05-24T13:39:26;27.70;96.90
20481;DHT22;10399;50.754;3.366;2023-05-24T13:41:54;27.30;95.20
20481;DHT22;10399;50.754;3.366;2023-05-24T13:44:21;26.90;94.60
20481;DHT22;10399;50.754;3.366;2023-05-24T13:46:49;26.30;96.10
20481;DHT22;10399;50.754;3.366;2023-05-24T13:49:16;26.10;94.90
20481;DHT22;10399;50.754;3.366;2023-05-24T13:51:43;26.20;95.50
20481;DHT22;10399;50.754;3.366;2023-05-24T13:54:11;26.30;94.70
20481;DHT22;10399;50.754;3.366;2023-05-24T13:56:39;26.00;96.50
20481;DHT22;10399;50.754;3.366;2023-05-24T13:59:09;25.90;95.00
20481;DHT22;10399;50.754;3.366;2023-05-24T14:01:37;26.20;95.60
20481;DHT22;10399;50.754;3.366;2023-05-24T14:04:06;26.60;95.60
20481;DHT22;10399;50.754;3.366;2023-05-24T14:06:33;26.50;96.20
20481;DHT22;10399;50.754;3.366;2023-05-24T14:09:04;26.40;94.30
20481;DHT22;10399;50.754;3.366;2023-05-24T14:11:35;26.10;94.20
20481;DHT22;10399;50.754;3.366;2023-05-24T14:14:02;26.00;94.90
20481;DHT22;10399;50.754;3.366;2023-05-24T14:16:32;26.30;94.50
20481;DHT22;10399;50.754;3.366;2023-05-24T14:18:59;25.90;95.50
20481;DHT22;10399;50.754;3.366;2023-05-24T14:21:26;25.90;94.00
20481;DHT22;10399;50.754;3.366;2023-05-24T14:23:53;25.90;94.80
20481;DHT22;10399;50.754;3.366;2023-05-24T14:26:21;26.00;95.00
20481;DHT22;10399;50.754;3.366;2023-05-24T14:28:49;26.30;94.20
20481;DHT22;10399;50.754;3.366;2023-05-24T14:31:21;26.60;94.80
20481;DHT22;10399;50.754;3.366;2023-05-24T14:33:49;26.70;93.50
20481;DHT22;10399;50.754;3.366;2023-05-24T14:36:16;26.70;93.80
20481;DHT22;10399;50.754;3.366;2023-05-24T14:38:43;26.90;94.80
20481;DHT22;10399;50.754;3.366;2023-05-24T14:41:11;26.90;94.00
20481;DHT22;10399;50.754;3.366;2023-05-24T14:43:38;26.80;93.40
20481;DHT22;10399;50.754;3.366;2023-05-24T14:46:06;26.70;94.50
20481;DHT22;10399;50.754;3.366;2023-05-24T14:48:33;26.50;94.20
20481;DHT22;10399;50.754;3.366;2023-05-24T14:51:01;26.60;94.70
20481;DHT22;10399;50.754;3.366;2023-05-24T14:53:28;26.70;94.80
20481;DHT22;10399;50.754;3.366;2023-05-24T14:55:56;27.20;94.70
20481;DHT22;10399;50.754;3.366;2023-05-24T14:58:23;27.10;93.70
20481;DHT22;10399;50.754;3.366;2023-05-24T15:00:50;27.00;93.10
20481;DHT22;10399;50.754;3.366;2023-05-24T15:03:17;26.90;93.70
20481;DHT22;10399;50.754;3.366;2023-05-24T15:05:47;26.80;94.60
20481;DHT22;10399;50.754;3.366;2023-05-24T15:08:14;26.70;94.30
20481;DHT22;10399;50.754;3.366;2023-05-24T15:10:41;26.50;94.30
20481;DHT22;10399;50.754;3.366;2023-05-24T15:13:12;26.10;94.00
20481;DHT22;10399;50.754;3.366;2023-05-24T15:15:38;25.70;94.80
20481;DHT22;10399;50.754;3.366;2023-05-24T15:18:06;25.60;94.70
20481;DHT22;10399;50.754;3.366;2023-05-24T15:20:33;25.50;95.70
20481;DHT22;10399;50.754;3.366;2023-05-24T15:23:02;25.00;96.20
20481;DHT22;10399;50.754;3.366;2023-05-24T15:25:29;24.80;96.30
20481;DHT22;10399;50.754;3.366;2023-05-24T15:27:56;24.70;96.90
20481;DHT22;10399;50.754;3.366;2023-05-24T15:30:23;24.40;97.90
20481;DHT22;10399;50.754;3.366;2023-05-24T15:32:50;24.40;98.80
20481;DHT22;10399;50.754;3.366;2023-05-24T15:35:17;24.80;99.00
20481;DHT22;10399;50.754;3.366;2023-05-24T15:37:44;25.00;98.30
20481;DHT22;10399;50.754;3.366;2023-05-24T15:40:12;24.90;98.30
20481;DHT22;10399;50.754;3.366;2023-05-24T15:42:40;24.90;98.40
20481;DHT22;10399;50.754;3.366;2023-05-24T15:45:10;24.90;98.80
20481;DHT22;10399;50.754;3.366;2023-05-24T15:47:38;24.50;99.50
20481;DHT22;10399;50.754;3.366;2023-05-24T15:50:07;24.30;99.80
20481;DHT22;10399;50.754;3.366;2023-05-24T15:52:34;24.30;99.90